Time;durP1;ratioP1;P1;durP2;ratioP2;P2;SDS_P1;SDS_P2;PMS_P1;PMS_P2;Temp;Humidity;BMP_temperature;BMP_pressure;BME280_temperature;BME280_humidity;BME280_pressure;Samples;Min_cycle;Max_cycle;Signal;HPM_P1;HPM_P2
2021/06/09 00:00:24;80795.00;0.27;140.41;0.00;0.00;0.62;;;;;20.10;2.50;;;;;;2284293;61;1038;-86
2021/06/09 00:02:50;226563.00;0.76;391.64;59386.00;0.20;103.42;;;;;19.60;3.90;;;;;;2284029;61;1293;-86
2021/06/09 00:05:18;262754.00;0.88;453.88;51519.00;0.17;89.81;;;;;19.40;5.60;;;;;;2284238;61;1111;-86
2021/06/09 00:07:45;0.00;0.00;0.62;0.00;0.00;0.62;;;;;19.50;4.80;;;;;;2283914;61;1923;-85
2021/06/09 00:10:11;0.00;0.00;0.62;0.00;0.00;0.62;;;;;19.80;4.40;;;;;;2284039;61;1172;-87
2021/06/09 00:12:38;0.00;0.00;0.62;0.00;0.00;0.62;;;;;19.60;4.30;;;;;;2284232;61;1369;-86
2021/06/09 00:15:06;74613.00;0.25;129.73;0.00;0.00;0.62;;;;;19.50;5.00;;;;;;2285084;60;1104;-85
2021/06/09 00:17:32;0.00;0.00;0.62;0.00;0.00;0.62;;;;;19.70;4.40;;;;;;2285100;60;1136;-85
2021/06/09 00:19:59;10740.00;0.04;19.23;0.00;0.00;0.62;;;;;19.80;3.10;;;;;;2285108;60;1166;-86
2021/06/09 00:22:27;0.00;0.00;0.62;0.00;0.00;0.62;;;;;20.00;3.40;;;;;;2283960;61;1397;-86
2021/06/09 00:24:53;50851.00;0.17;88.66;0.00;0.00;0.62;;;;;19.60;4.30;;;;;;2284004;61;1148;-86
2021/06/09 00:27:20;70349.00;0.23;122.36;0.00;0.00;0.62;;;;;19.30;5.70;;;;;;2283623;61;1994;-86
2021/06/09 00:29:46;0.00;0.00;0.62;0.00;0.00;0.62;;;;;19.40;5.60;;;;;;2283938;61;1097;-86
2021/06/09 00:32:12;0.00;0.00;0.62;0.00;0.00;0.62;;;;;19.70;4.10;;;;;;2284042;61;1328;-86
2021/06/09 00:34:39;0.00;0.00;0.62;0.00;0.00;0.62;;;;;19.70;4.10;;;;;;2283797;61;1215;-86
2021/06/09 00:37:05;22265.00;0.07;39.19;0.00;0.00;0.62;;;;;19.70;3.80;;;;;;2283465;61;1115;-86
2021/06/09 00:39:33;0.00;0.00;0.62;0.00;0.00;0.62;;;;;19.60;4.50;;;;;;2283601;61;1152;-86
2021/06/09 00:41:59;58167.00;0.19;101.31;0.00;0.00;0.62;;;;;19.50;4.90;;;;;;2284858;60;1391;-86
2021/06/09 00:44:26;137345.00;0.46;237.99;0.00;0.00;0.62;;;;;19.50;5.40;;;;;;2284344;61;1104;-87
2021/06/09 00:46:52;0.00;0.00;0.62;0.00;0.00;0.62;;;;;19.50;4.70;;;;;;2284183;61;1917;-86
2021/06/09 00:49:19;55460.00;0.18;96.63;0.00;0.00;0.62;;;;;19.40;4.80;;;;;;2284483;61;1156;-85
2021/06/09 00:51:45;101298.00;0.34;175.81;0.00;0.00;0.62;;;;;19.30;5.60;;;;;;2284758;61;1399;-87
2021/06/09 00:54:11;162024.00;0.54;280.53;42491.00;0.14;74.20;;;;;19.20;5.60;;;;;;2284554;60;1112;-86
2021/06/09 00:56:39;0.00;0.00;0.62;0.00;0.00;0.62;;;;;19.10;5.50;;;;;;2284260;61;1092;-86
2021/06/09 00:59:07;7145.00;0.02;13.00;0.00;0.00;0.62;;;;;19.00;5.40;;;;;;2284295;61;1035;-87
2021/06/09 01:01:35;111486.00;0.37;193.39;0.00;0.00;0.62;;;;;19.00;5.60;;;;;;2284861;60;1327;-86
2021/06/09 01:04:02;69529.00;0.23;120.95;0.00;0.00;0.62;;;;;19.00;5.70;;;;;;2284936;60;1056;-86
2021/06/09 01:06:28;0.00;0.00;0.62;0.00;0.00;0.62;;;;;19.10;5.50;;;;;;2284579;61;1915;-86
2021/06/09 01:08:55;352046.00;1.17;607.38;141240.00;0.47;244.71;;;;;19.00;6.50;;;;;;2284444;60;1151;-85
2021/06/09 01:11:23;0.00;0.00;0.62;0.00;0.00;0.62;;;;;19.10;5.50;;;;;;2284914;60;1447;-85
2021/06/09 01:13:52;13077.00;0.04;23.28;0.00;0.00;0.62;;;;;19.20;5.20;;;;;;2284870;60;1091;-86
2021/06/09 01:16:19;31135.00;0.10;54.55;0.00;0.00;0.62;;;;;19.30;4.40;;;;;;2284829;60;1112;-85
2021/06/09 01:18:47;32128.00;0.11;56.27;0.00;0.00;0.62;;;;;19.20;4.00;;;;;;2284886;60;1049;-86
2021/06/09 01:21:13;23783.00;0.08;41.82;0.00;0.00;0.62;;;;;19.00;4.60;;;;;;2284843;60;1438;-86
2021/06/09 01:23:42;60198.00;0.20;104.82;0.00;0.00;0.62;;;;;19.10;4.80;;;;;;2284910;60;1154;-86
2021/06/09 01:26:10;243733.00;0.81;421.17;46691.00;0.16;81.46;;;;;19.20;4.60;;;;;;2284867;60;1083;-86
2021/06/09 01:28:37;61336.00;0.20;106.79;0.00;0.00;0.62;;;;;19.30;4.70;;;;;;2284712;60;2010;-84
2021/06/09 01:31:04;0.00;0.00;0.62;0.00;0.00;0.62;;;;;19.30;4.70;;;;;;2284861;60;1106;-85
2021/06/09 01:33:31;0.00;0.00;0.62;0.00;0.00;0.62;;;;;19.40;3.50;;;;;;2284820;61;1493;-85
2021/06/09 01:35:58;94995.00;0.32;164.93;0.00;0.00;0.62;;;;;19.30;4.40;;;;;;2284595;61;1127;-86
2021/06/09 01:38:24;0.00;0.00;0.62;0.00;0.00;0.62;;;;;19.50;2.80;;;;;;2284806;60;1144;-85
2021/06/09 01:40:52;0.00;0.00;0.62;0.00;0.00;0.62;;;;;19.40;2.90;;;;;;2284798;60;1128;-85
2021/06/09 01:43:19;105768.00;0.35;183.53;0.00;0.00;0.62;;;;;19.50;2.20;;;;;;2284652;60;1384;-85
2021/06/09 01:45:46;79210.00;0.26;137.67;0.00;0.00;0.62;;;;;19.50;3.00;;;;;;2284790;60;1024;-86
2021/06/09 01:48:13;0.00;0.00;0.62;0.00;0.00;0.62;;;;;19.40;2.60;;;;;;2284315;61;2000;-87
2021/06/09 01:50:40;54933.00;0.18;95.72;0.00;0.00;0.62;;;;;19.40;3.60;;;;;;2284489;61;1907;-87
2021/06/09 01:53:09;123247.00;0.41;213.68;37357.00;0.12;65.32;;;;;19.40;3.50;;;;;;2284530;60;1313;-86
2021/06/09 01:55:38;0.00;0.00;0.62;0.00;0.00;0.62;;;;;19.40;3.00;;;;;;2284501;60;1618;-87
2021/06/09 01:58:10;0.00;0.00;0.62;0.00;0.00;0.62;;;;;19.80;2.60;;;;;;2284705;60;1137;-86
2021/06/09 02:00:40;0.00;0.00;0.62;0.00;0.00;0.62;;;;;20.00;2.10;;;;;;2284695;61;1531;-86
2021/06/09 02:03:07;0.00;0.00;0.62;0.00;0.00;0.62;;;;;19.80;1.30;;;;;;2284669;61;1428;-86
2021/06/09 02:05:36;31571.00;0.11;55.30;0.00;0.00;0.62;;;;;19.80;2.10;;;;;;2284674;61;1056;-86
2021/06/09 02:08:07;55581.00;0.19;96.84;0.00;0.00;0.62;;;;;19.80;1.70;;;;;;2284452;61;2002;-86
2021/06/09 02:10:35;28776.00;0.10;50.46;0.00;0.00;0.62;;;;;19.80;1.80;;;;;;2284541;60;1144;-86
2021/06/09 02:13:08;23923.00;0.08;42.06;0.00;0.00;0.62;;;;;19.90;1.70;;;;;;2284683;60;1367;-86
2021/06/09 02:15:35;0.00;0.00;0.62;0.00;0.00;0.62;;;;;19.60;2.30;;;;;;2284676;60;1124;-86
2021/06/09 02:18:09;11105.00;0.04;19.86;0.00;0.00;0.62;;;;;19.60;2.70;;;;;;2284490;61;1148;-85
2021/06/09 02:20:38;24250.00;0.08;42.63;0.00;0.00;0.62;;;;;19.50;3.20;;;;;;2284710;60;1123;-85
2021/06/09 02:23:04;0.00;0.00;0.62;0.00;0.00;0.62;;;;;19.70;3.20;;;;;;2284712;60;1360;-86
2021/06/09 02:25:31;469015.00;1.56;808.49;167194.00;0.56;289.43;;;;;19.60;3.40;;;;;;2284638;60;1098;-84
2021/06/09 02:27:58;102718.00;0.34;178.26;36271.00;0.12;63.44;;;;;19.70;2.80;;;;;;2284634;60;1915;-85
2021/06/09 02:30:26;9722.00;0.03;17.47;0.00;0.00;0.62;;;;;19.70;2.80;;;;;;2284665;60;1076;-85
2021/06/09 02:32:53;0.00;0.00;0.62;0.00;0.00;0.62;;;;;19.60;2.70;;;;;;2284682;60;1420;-85
2021/06/09 02:35:20;83746.00;0.28;145.51;0.00;0.00;0.62;;;;;19.70;2.10;;;;;;2284458;60;1137;-86
2021/06/09 02:37:51;129282.00;0.43;224.09;0.00;0.00;0.62;;;;;19.70;1.70;;;;;;2284567;61;1080;-86
2021/06/09 02:40:18;0.00;0.00;0.62;0.00;0.00;0.62;;;;;19.80;1.50;;;;;;2284474;61;1111;-86
2021/06/09 02:42:44;413537.00;1.38;713.08;55314.00;0.18;96.38;;;;;19.80;1.50;;;;;;2284570;61;1404;-87
2021/06/09 02:45:13;99888.00;0.33;173.38;0.00;0.00;0.62;;;;;20.00;1.00;;;;;;2284521;60;1575;-87
2021/06/09 02:47:46;0.00;0.00;0.62;0.00;0.00;0.62;;;;;20.10;1.00;;;;;;2284591;60;2000;-86
2021/06/09 02:50:13;0.00;0.00;0.62;0.00;0.00;0.62;;;;;20.00;1.00;;;;;;2284639;61;921;-87
2021/06/09 02:52:48;0.00;0.00;0.62;0.00;0.00;0.62;;;;;19.90;1.20;;;;;;2284566;61;1427;-87
2021/06/09 02:55:27;0.00;0.00;0.62;0.00;0.00;0.62;;;;;19.60;2.40;;;;;;2285312;60;1166;-85
2021/06/09 02:58:05;0.00;0.00;0.62;0.00;0.00;0.62;;;;;19.50;2.60;;;;;;2285355;60;1092;-85
2021/06/09 03:00:40;0.00;0.00;0.62;0.00;0.00;0.62;;;;;19.40;3.20;;;;;;2285350;60;1105;-86
2021/06/09 03:03:15;188767.00;0.63;326.59;23798.00;0.08;41.85;;;;;19.40;3.00;;;;;;2285304;60;1475;-85
2021/06/09 03:05:51;101364.00;0.34;175.93;35051.00;0.12;61.32;;;;;19.60;2.70;;;;;;2285298;60;1037;-85
2021/06/09 03:08:26;0.00;0.00;0.62;0.00;0.00;0.62;;;;;19.70;1.00;;;;;;2285193;60;1994;-85
2021/06/09 03:11:00;88101.00;0.29;153.03;0.00;0.00;0.62;;;;;19.50;2.60;;;;;;2285280;60;1125;-85
2021/06/09 03:13:51;32019.00;0.11;56.08;0.00;0.00;0.62;;;;;19.40;2.50;;;;;;2285216;60;1523;-86
2021/06/09 03:16:23;197402.00;0.66;341.45;68981.00;0.23;120.00;;;;;19.50;2.50;;;;;;2285240;60;1076;-85
2021/06/09 03:18:53;0.00;0.00;0.62;0.00;0.00;0.62;;;;;19.30;3.70;;;;;;2285274;60;1127;-84
2021/06/09 03:21:24;61974.00;0.21;107.89;0.00;0.00;0.62;;;;;19.30;3.30;;;;;;2285209;60;1310;-86
2021/06/09 03:24:03;290937.00;0.97;502.34;10302.00;0.03;18.47;;;;;19.40;3.20;;;;;;2285248;60;1112;-83
2021/06/09 03:26:40;3090.00;0.01;5.98;0.00;0.00;0.62;;;;;19.40;3.20;;;;;;2285237;60;1130;-86
2021/06/09 03:29:14;11852.00;0.04;21.16;0.00;0.00;0.62;;;;;19.30;2.70;;;;;;2285239;60;1123;-87
2021/06/09 03:31:46;0.00;0.00;0.62;0.00;0.00;0.62;;;;;19.30;3.70;;;;;;2285236;60;1533;-87
2021/06/09 03:34:21;211578.00;0.71;365.85;75309.00;0.25;130.93;;;;;19.30;3.50;;;;;;2285123;60;1108;-86
2021/06/09 03:36:50;318130.00;1.06;549.08;73837.00;0.25;128.39;;;;;19.20;3.70;;;;;;2285065;60;1050;-86
2021/06/09 03:39:21;2583.00;0.01;5.10;0.00;0.00;0.62;;;;;19.20;3.90;;;;;;2285119;61;1586;-86
2021/06/09 03:41:51;0.00;0.00;0.62;0.00;0.00;0.62;;;;;19.20;3.70;;;;;;2285125;60;1396;-85
2021/06/09 03:44:24;22629.00;0.08;39.82;0.00;0.00;0.62;;;;;19.10;3.70;;;;;;2285179;60;1139;-86
2021/06/09 03:46:52;3826.00;0.01;7.25;0.00;0.00;0.62;;;;;18.90;5.30;;;;;;2285114;60;1923;-85
2021/06/09 03:49:22;17784.00;0.06;31.43;72153.00;0.24;125.48;;;;;18.70;5.20;;;;;;2285174;60;1319;-84
2021/06/09 03:51:50;120314944.00;401.05;70553104.00;127494.00;0.42;221.01;;;;;18.70;5.80;;;;;;2284925;61;1754;-86
2021/06/09 03:54:19;139154.00;0.46;241.11;62989.00;0.21;109.64;;;;;18.70;6.00;;;;;;2285082;60;1161;-86
2021/06/09 03:56:49;314090.00;1.05;542.14;113385.00;0.38;196.67;;;;;18.60;6.60;;;;;;2284993;60;1128;-86
2021/06/09 03:59:17;170024.00;0.57;294.31;67030.00;0.22;116.63;;;;;18.40;7.20;;;;;;2285210;61;1124;-86
2021/06/09 04:01:46;173101.00;0.58;299.61;79218.00;0.26;137.69;;;;;18.60;6.30;;;;;;2285082;60;1439;-85
2021/06/09 04:04:20;469694.00;1.57;809.66;173542.00;0.58;300.37;;;;;18.70;5.50;;;;;;2285108;60;1199;-86
2021/06/09 04:06:49;190090.00;0.63;328.86;75032.00;0.25;130.45;;;;;19.00;5.40;;;;;;2285046;61;2016;-85
2021/06/09 04:09:19;201487.00;0.67;348.48;70154.00;0.23;122.03;;;;;19.20;5.40;;;;;;2284907;61;1191;-86
2021/06/09 04:11:49;213659.00;0.71;369.43;51712.00;0.17;90.15;;;;;19.40;4.20;;;;;;2285097;60;1305;-86
2021/06/09 04:14:20;203429.00;0.68;351.83;70601.00;0.24;122.80;;;;;19.30;4.10;;;;;;2285074;60;1106;-84
2021/06/09 04:16:48;265418.00;0.88;458.47;67439.00;0.22;117.33;;;;;19.40;4.20;;;;;;2284991;60;1013;-86
2021/06/09 04:19:17;237793.00;0.79;410.95;68308.00;0.23;118.84;;;;;19.60;4.00;;;;;;2285086;60;1198;-84
2021/06/09 04:21:45;297670.00;0.99;513.91;69562.00;0.23;121.00;;;;;19.50;3.30;;;;;;2285032;60;1314;-83
2021/06/09 04:24:11;446286.00;1.49;769.39;87966.00;0.29;152.80;;;;;19.20;5.30;;;;;;2285046;60;1143;-84
2021/06/09 04:26:39;334414.00;1.11;577.07;106392.00;0.35;184.60;;;;;19.40;4.10;;;;;;2285010;60;1057;-86
2021/06/09 04:29:06;248837.00;0.83;429.95;69794.00;0.23;121.40;;;;;19.50;3.50;;;;;;2284848;61;2025;-85
2021/06/09 04:31:34;165804.00;0.55;287.04;72551.00;0.24;126.17;;;;;19.70;3.60;;;;;;2284481;61;1315;-86
2021/06/09 04:34:00;343104.00;1.14;592.01;103734.00;0.35;180.02;;;;;19.90;2.20;;;;;;2284553;61;1127;-86
2021/06/09 04:36:28;182319.00;0.61;315.48;65408.00;0.22;113.82;;;;;20.10;2.00;;;;;;2284394;61;1143;-87
2021/06/09 04:38:56;169183.00;0.56;292.86;70826.00;0.24;123.19;;;;;20.30;1.40;;;;;;2284575;61;1132;-87
2021/06/09 04:41:23;267742.00;0.89;462.46;71267.00;0.24;123.95;;;;;20.20;1.00;;;;;;2284623;61;1236;-87
2021/06/09 04:43:52;175308.00;0.58;303.41;73223.00;0.24;127.33;;;;;20.10;1.70;;;;;;2284241;60;1190;-86
2021/06/09 04:46:19;171742.00;0.57;297.27;75975.00;0.25;132.08;;;;;19.90;1.90;;;;;;2284287;61;1062;-87
2021/06/09 04:49:00;162132.00;0.54;280.71;64743.00;0.22;112.68;;;;;20.00;2.00;;;;;;2283602;61;2005;-86
2021/06/09 04:51:28;180932.00;0.60;313.09;70862.00;0.24;123.25;;;;;20.00;2.80;;;;;;2284252;61;1311;-87
2021/06/09 04:53:56;221807.00;0.74;383.45;66067.00;0.22;114.96;;;;;20.30;2.90;;;;;;2284022;61;1144;-87
2021/06/09 04:56:23;192931.00;0.64;333.75;65767.00;0.22;114.45;;;;;20.70;1.50;;;;;;2283819;61;1116;-87
2021/06/09 04:58:50;176148.00;0.59;304.86;72078.00;0.24;125.35;;;;;20.90;1.00;;;;;;2284064;61;1183;-87
2021/06/09 05:01:16;201162.00;0.67;347.92;80702.00;0.27;140.25;;;;;21.00;1.00;;;;;;2284336;61;1361;-87
2021/06/09 05:03:42;200770.00;0.67;347.25;65864.00;0.22;114.61;;;;;21.10;1.00;;;;;;2284074;61;1092;-87
2021/06/09 05:06:09;254844.00;0.85;440.28;72539.00;0.24;126.15;;;;;21.10;1.00;;;;;;2284147;61;1057;-87
2021/06/09 05:08:35;287863.00;0.96;497.06;74802.00;0.25;130.06;;;;;21.10;1.00;;;;;;2283779;61;2015;-87
2021/06/09 05:11:09;217572.00;0.73;376.17;71229.00;0.24;123.88;;;;;21.40;1.00;;;;;;2283075;61;1807;-86
2021/06/09 05:13:41;208667.00;0.70;360.84;69578.00;0.23;121.03;;;;;21.40;1.00;;;;;;2284118;61;1135;-87
2021/06/09 05:16:13;204364.00;0.68;353.44;66305.00;0.22;115.37;;;;;21.30;1.00;;;;;;2283665;61;1152;-87
2021/06/09 05:18:42;213434.00;0.71;369.04;78407.00;0.26;136.29;;;;;21.50;1.00;;;;;;2283975;61;1099;-87
2021/06/09 05:21:10;233836.00;0.78;404.15;70548.00;0.24;122.71;;;;;21.40;1.00;;;;;;2284270;61;1415;-88
2021/06/09 05:23:40;329933.00;1.10;569.37;65452.00;0.22;113.90;;;;;21.40;1.00;;;;;;2283912;61;1909;-88
2021/06/09 05:26:10;325249.00;1.08;561.32;76040.00;0.25;132.20;;;;;21.30;1.00;;;;;;2283885;61;1068;-87
2021/06/09 05:28:42;179585.00;0.60;310.77;69593.00;0.23;121.06;;;;;21.60;1.00;;;;;;2283064;61;1937;-87
2021/06/09 05:31:11;41552.00;0.14;72.57;0.00;0.00;0.62;;;;;21.60;1.00;;;;;;2283120;61;1485;-88
2021/06/09 05:33:38;137105.00;0.46;237.58;0.00;0.00;0.62;;;;;21.80;1.00;;;;;;2282525;61;1205;-87
2021/06/09 05:36:06;162397.00;0.54;281.17;0.00;0.00;0.62;;;;;21.90;1.00;;;;;;2282877;61;1180;-88
2021/06/09 05:38:33;874223.00;2.91;1510.89;278819.00;0.93;481.51;;;;;21.90;1.00;;;;;;2282588;61;1176;-88
2021/06/09 05:41:01;268131.00;0.89;463.13;72160.00;0.24;125.49;;;;;21.90;1.00;;;;;;2282594;61;1183;-87
2021/06/09 05:43:29;58228.00;0.19;101.41;0.00;0.00;0.62;;;;;21.80;1.00;;;;;;2281679;61;1361;-87
2021/06/09 05:45:56;293742.00;0.98;507.16;67747.00;0.23;117.87;;;;;22.20;1.00;;;;;;2280392;61;1165;-86
2021/06/09 05:48:24;246955.00;0.82;426.71;66519.00;0.22;115.74;;;;;22.20;1.00;;;;;;2280813;61;2012;-88
2021/06/09 05:50:51;301455.00;1.00;520.42;71057.00;0.24;123.59;;;;;22.50;1.00;;;;;;2281182;61;1116;-88
2021/06/09 05:53:18;413855.00;1.38;713.62;125335.00;0.42;217.28;;;;;22.80;1.00;;;;;;2280907;61;1334;-88
2021/06/09 05:55:47;291718.00;0.97;503.68;60154.00;0.20;104.74;;;;;22.80;1.00;;;;;;2282271;60;1127;-87
2021/06/09 05:58:17;343672.00;1.15;592.98;66264.00;0.22;115.30;;;;;22.80;1.00;;;;;;2284812;60;1032;-86
2021/06/09 06:00:49;100531.00;0.34;174.49;0.00;0.00;0.62;;;;;22.30;1.00;;;;;;2284748;60;1027;-88
2021/06/09 06:03:16;448066.00;1.49;772.46;0.00;0.00;0.62;;;;;21.60;1.00;;;;;;2284257;60;1725;-86
2021/06/09 06:05:46;186900.00;0.62;323.37;0.00;0.00;0.62;;;;;21.30;1.00;;;;;;2284563;60;1136;-87
2021/06/09 06:08:12;285120.00;0.95;492.34;0.00;0.00;0.62;;;;;21.80;1.00;;;;;;2284278;61;2017;-87
2021/06/09 06:10:39;281417.00;0.94;485.97;13028.00;0.04;23.19;;;;;22.60;1.00;;;;;;2284441;61;1167;-86
2021/06/09 06:13:07;425862.00;1.42;734.27;99373.00;0.33;172.49;;;;;23.00;1.00;;;;;;2284561;60;1333;-87
2021/06/09 06:15:35;380167.00;1.27;655.71;44875.00;0.15;78.32;;;;;23.20;1.00;;;;;;2284393;60;1279;-87
2021/06/09 06:18:03;377706.00;1.26;651.48;0.00;0.00;0.62;;;;;23.30;1.00;;;;;;2284467;60;1139;-87
2021/06/09 06:20:30;139903.00;0.47;242.40;0.00;0.00;0.62;;;;;22.60;1.00;;;;;;2284772;60;1116;-87
2021/06/09 06:22:56;516995.00;1.72;891.09;73921.00;0.25;128.54;;;;;22.90;1.00;;;;;;2284715;60;1716;-86
2021/06/09 06:25:25;473972.00;1.58;817.02;73810.00;0.25;128.34;;;;;23.20;1.00;;;;;;2284814;60;1025;-87
2021/06/09 06:27:53;340348.00;1.13;587.27;75380.00;0.25;131.06;;;;;23.00;1.00;;;;;;2284503;60;2002;-88
2021/06/09 06:30:22;339414.00;1.13;585.67;74630.00;0.25;129.76;;;;;23.30;1.00;;;;;;2285337;60;1130;-87
2021/06/09 06:32:51;405846.00;1.35;699.86;68619.00;0.23;119.37;;;;;23.40;1.00;;;;;;2285317;60;1348;-87
2021/06/09 06:35:22;201628.00;0.67;348.73;60769.00;0.20;105.81;;;;;23.60;1.00;;;;;;2285326;60;1109;-87
2021/06/09 06:37:49;275436.00;0.92;475.69;62752.00;0.21;109.23;;;;;23.20;1.00;;;;;;2285319;60;1069;-87
2021/06/09 06:40:20;281548.00;0.94;486.20;65355.00;0.22;113.73;;;;;23.00;1.00;;;;;;2285338;60;1034;-87
2021/06/09 06:42:49;137972.00;0.46;239.07;0.00;0.00;0.62;;;;;22.10;1.00;;;;;;2285304;60;1453;-87
2021/06/09 06:45:16;385870.00;1.29;665.52;7759.00;0.03;14.07;;;;;21.90;1.00;;;;;;2285365;60;1099;-86
2021/06/09 06:47:44;204080.00;0.68;352.95;0.00;0.00;0.62;;;;;22.50;1.00;;;;;;2285215;60;1919;-88
2021/06/09 06:50:12;238834.00;0.80;412.75;35338.00;0.12;61.82;;;;;23.00;1.00;;;;;;2285316;60;1063;-87
2021/06/09 06:52:41;215672.00;0.72;372.90;0.00;0.00;0.62;;;;;23.20;1.00;;;;;;2285267;60;1371;-87
2021/06/09 06:55:09;52934.00;0.18;92.26;0.00;0.00;0.62;;;;;23.20;1.00;;;;;;2285309;60;1081;-87
2021/06/09 06:57:35;339976.00;1.13;586.63;25157.00;0.08;44.20;;;;;22.90;1.00;;;;;;2285306;60;989;-87
2021/06/09 07:00:07;207814.00;0.69;359.37;0.00;0.00;0.62;;;;;22.90;1.00;;;;;;2285280;60;1112;-87
2021/06/09 07:02:34;0.00;0.00;0.62;0.00;0.00;0.62;;;;;22.80;1.00;;;;;;2285258;60;1364;-87
2021/06/09 07:05:03;257636.00;0.86;445.08;0.00;0.00;0.62;;;;;23.00;1.00;;;;;;2285265;60;1097;-86
2021/06/09 07:07:32;368113.00;1.23;634.99;31374.00;0.10;54.96;;;;;23.40;1.00;;;;;;2285120;60;1919;-88
2021/06/09 07:10:03;101532.00;0.34;176.22;0.00;0.00;0.62;;;;;23.50;1.00;;;;;;2285239;60;1115;-87
2021/06/09 07:12:29;138289.00;0.46;239.62;0.00;0.00;0.62;;;;;23.20;1.00;;;;;;2285241;60;1327;-87
2021/06/09 07:14:56;174832.00;0.58;302.59;0.00;0.00;0.62;;;;;23.90;1.00;;;;;;2285215;60;1119;-87
2021/06/09 07:17:24;103928.00;0.35;180.35;0.00;0.00;0.62;;;;;24.30;1.00;;;;;;2285186;60;1104;-87
2021/06/09 07:19:51;237554.00;0.79;410.54;0.00;0.00;0.62;;;;;24.70;1.00;;;;;;2285165;60;1135;-87
2021/06/09 07:22:17;0.00;0.00;0.62;0.00;0.00;0.62;;;;;24.70;1.00;;;;;;2285113;60;1305;-86
2021/06/09 07:24:44;260256.00;0.87;449.59;0.00;0.00;0.62;;;;;24.90;1.00;;;;;;2285202;60;1017;-85
2021/06/09 07:27:14;248954.00;0.83;430.15;86206.00;0.29;149.76;;;;;25.10;1.00;;;;;;2285132;60;1911;-85
2021/06/09 07:29:43;175991.00;0.59;304.59;0.00;0.00;0.62;;;;;26.00;1.00;;;;;;2285030;60;1044;-86
2021/06/09 07:32:10;267167.00;0.89;461.47;40717.00;0.14;71.13;;;;;26.30;1.00;;;;;;2285064;60;1279;-86
2021/06/09 07:34:37;204805.00;0.68;354.19;72583.00;0.24;126.22;;;;;26.10;1.00;;;;;;2285127;60;1168;-87
2021/06/09 07:37:08;501491.00;1.67;864.39;106733.00;0.36;185.19;;;;;26.40;1.00;;;;;;2284666;60;1164;-85
2021/06/09 07:39:38;361316.00;1.20;623.31;51859.00;0.17;90.40;;;;;26.40;1.00;;;;;;2284646;60;1145;-85
2021/06/09 07:42:09;250929.00;0.84;433.55;0.00;0.00;0.62;;;;;26.00;1.00;;;;;;2285015;60;1471;-85
2021/06/09 07:44:42;60810.00;0.20;105.88;0.00;0.00;0.62;;;;;25.60;1.00;;;;;;2285114;60;1217;-85
2021/06/09 07:47:12;188282.00;0.63;325.75;42694.00;0.14;74.55;;;;;25.50;1.00;;;;;;2285055;60;1147;-85
2021/06/09 07:49:39;252645.00;0.84;436.50;0.00;0.00;0.62;;;;;26.00;1.00;;;;;;2285000;60;1050;-85
2021/06/09 07:52:08;563858.00;1.88;971.85;74189.00;0.25;129.00;;;;;26.20;1.00;;;;;;2285022;60;1358;-85
2021/06/09 07:54:37;199038.00;0.66;344.27;0.00;0.00;0.62;;;;;26.60;1.00;;;;;;2284996;60;1736;-85
2021/06/09 07:57:06;101579.00;0.34;176.30;0.00;0.00;0.62;;;;;26.70;1.00;;;;;;2285024;60;1092;-86
2021/06/09 07:59:34;88210.00;0.29;153.22;0.00;0.00;0.62;;;;;26.70;1.00;;;;;;2284994;60;1065;-87
2021/06/09 08:02:03;166504.00;0.56;288.24;0.00;0.00;0.62;;;;;26.60;1.00;;;;;;2284929;60;1394;-85
2021/06/09 08:04:30;126749.00;0.42;219.72;0.00;0.00;0.62;;;;;26.50;1.00;;;;;;2284980;60;1229;-85
2021/06/09 08:06:58;336035.00;1.12;579.86;0.00;0.00;0.62;;;;;26.60;1.00;;;;;;2284896;60;1140;-87
2021/06/09 08:09:25;242417.00;0.81;418.91;0.00;0.00;0.62;;;;;26.30;1.00;;;;;;2284940;60;1924;-85
2021/06/09 08:11:53;138836.00;0.46;240.56;0.00;0.00;0.62;;;;;25.70;1.00;;;;;;2284868;60;1398;-85
2021/06/09 08:14:21;184010.00;0.61;318.39;20674.00;0.07;36.44;;;;;26.00;1.00;;;;;;2284942;60;1118;-85
2021/06/09 08:16:48;118484.00;0.39;205.47;0.00;0.00;0.62;;;;;26.00;1.00;;;;;;2284951;60;1119;-86
2021/06/09 08:19:16;228878.00;0.76;395.62;0.00;0.00;0.62;;;;;26.40;1.00;;;;;;2284918;60;1152;-85
2021/06/09 08:21:44;211813.00;0.71;366.26;0.00;0.00;0.62;;;;;26.50;1.00;;;;;;2284947;60;1295;-84
2021/06/09 08:24:10;186745.00;0.62;323.10;0.00;0.00;0.62;;;;;26.40;1.00;;;;;;2284923;60;1119;-84
2021/06/09 08:26:37;191371.00;0.64;331.07;0.00;0.00;0.62;;;;;26.10;1.00;;;;;;2284873;60;1614;-86
2021/06/09 08:29:05;55326.00;0.18;96.40;0.00;0.00;0.62;;;;;26.40;1.00;;;;;;2284897;60;1989;-84
2021/06/09 08:31:33;439461.00;1.46;757.66;73585.00;0.25;127.95;;;;;26.60;1.00;;;;;;2284825;60;1328;-85
2021/06/09 08:34:01;136963.00;0.46;237.34;0.00;0.00;0.62;;;;;26.90;1.00;;;;;;2284921;60;1132;-85
2021/06/09 08:36:31;286571.00;0.96;494.83;0.00;0.00;0.62;;;;;27.60;1.00;;;;;;2284877;60;1041;-86
2021/06/09 08:38:59;346039.00;1.15;597.05;0.00;0.00;0.62;;;;;28.00;1.00;;;;;;2284916;60;905;-87
2021/06/09 08:41:29;168103.00;0.56;291.00;0.00;0.00;0.62;;;;;28.50;1.00;;;;;;2284801;60;1707;-87
2021/06/09 08:43:57;243476.00;0.81;420.73;0.00;0.00;0.62;;;;;28.70;1.00;;;;;;2284889;60;1009;-86
2021/06/09 08:46:24;88759.00;0.30;154.16;0.00;0.00;0.62;;;;;28.70;1.00;;;;;;2284827;60;1075;-87
2021/06/09 08:48:52;190402.00;0.63;329.40;16923.00;0.06;29.94;;;;;28.60;1.00;;;;;;2284778;60;2006;-86
2021/06/09 08:51:18;502336.00;1.67;865.85;50704.00;0.17;88.40;;;;;29.00;1.00;;;;;;2284632;60;1411;-87
2021/06/09 08:53:49;41358.00;0.14;72.24;0.00;0.00;0.62;;;;;28.80;1.00;;;;;;2284836;60;1073;-86
2021/06/09 08:56:17;183719.00;0.61;317.89;47877.00;0.16;83.51;;;;;28.70;1.00;;;;;;2284810;60;1124;-86
2021/06/09 08:58:44;234673.00;0.78;405.59;54602.00;0.18;95.14;;;;;28.60;1.00;;;;;;2284724;60;1710;-85
2021/06/09 09:01:14;27538.00;0.09;48.32;0.00;0.00;0.62;;;;;28.00;1.00;;;;;;2284728;60;1428;-85
2021/06/09 09:03:43;161434.00;0.54;279.51;0.00;0.00;0.62;;;;;28.50;1.00;;;;;;2284849;60;971;-86
2021/06/09 09:06:10;245612.00;0.82;424.40;0.00;0.00;0.62;;;;;28.00;1.00;;;;;;2284762;60;1119;-86
2021/06/09 09:08:37;178089.00;0.59;308.20;0.00;0.00;0.62;;;;;28.40;1.00;;;;;;2284691;60;2002;-87
2021/06/09 09:11:05;146684.00;0.49;254.09;0.00;0.00;0.62;;;;;28.50;1.00;;;;;;2284753;60;1124;-86
2021/06/09 09:13:33;232511.00;0.78;401.87;0.00;0.00;0.62;;;;;28.40;1.00;;;;;;2284719;60;1241;-87
2021/06/09 09:15:59;174862.00;0.58;302.64;0.00;0.00;0.62;;;;;28.40;1.00;;;;;;2284812;60;1025;-87
2021/06/09 09:18:38;122279.00;0.41;212.01;0.00;0.00;0.62;;;;;28.80;1.00;;;;;;2284755;60;1099;-86
2021/06/09 09:21:05;130935.00;0.44;226.94;0.00;0.00;0.62;;;;;29.10;1.00;;;;;;2284790;60;1061;-85
2021/06/09 09:23:31;227840.00;0.76;393.83;20382.00;0.07;35.93;;;;;29.70;1.00;;;;;;2284749;60;1447;-87
2021/06/09 09:26:00;84513.00;0.28;146.83;0.00;0.00;0.62;;;;;29.90;1.00;;;;;;2284658;60;1065;-87
2021/06/09 09:28:30;44920.00;0.15;78.40;0.00;0.00;0.62;;;;;29.70;1.00;;;;;;2284504;60;2000;-87
2021/06/09 09:31:08;96313.00;0.32;167.21;0.00;0.00;0.62;;;;;29.80;1.00;;;;;;2284567;60;1005;-87
2021/06/09 09:33:35;99705.00;0.33;173.06;0.00;0.00;0.62;;;;;30.00;1.00;;;;;;2284558;60;1037;-86
2021/06/09 09:36:21;32197.00;0.11;56.39;0.00;0.00;0.62;;;;;29.70;1.00;;;;;;2284539;60;1148;-85
2021/06/09 09:38:48;198050.00;0.66;342.57;0.00;0.00;0.62;;;;;29.30;1.00;;;;;;2284499;60;1210;-87
2021/06/09 09:41:16;180211.00;0.60;311.85;0.00;0.00;0.62;;;;;29.40;1.00;;;;;;2284492;60;1453;-85
2021/06/09 09:43:54;56956.00;0.19;99.21;0.00;0.00;0.62;;;;;29.10;1.00;;;;;;2284310;60;1261;-86
2021/06/09 09:46:23;145992.00;0.49;252.90;0.00;0.00;0.62;;;;;29.20;1.00;;;;;;2284495;60;1011;-87
2021/06/09 09:49:05;250984.00;0.84;433.64;28398.00;0.09;49.81;;;;;29.80;1.00;;;;;;2284575;60;2004;-87
2021/06/09 09:51:33;22959.00;0.08;40.39;0.00;0.00;0.62;;;;;29.50;1.00;;;;;;2284569;60;1397;-88
2021/06/09 09:54:02;0.00;0.00;0.62;0.00;0.00;0.62;;;;;29.80;1.00;;;;;;2284688;60;1053;-85
2021/06/09 09:56:30;86376.00;0.29;150.05;0.00;0.00;0.62;;;;;29.30;1.00;;;;;;2284657;60;1605;-86
2021/06/09 09:59:02;231785.00;0.77;400.62;63903.00;0.21;111.22;;;;;29.50;1.00;;;;;;2284660;60;1109;-86
2021/06/09 10:01:31;0.00;0.00;0.62;0.00;0.00;0.62;;;;;30.10;1.00;;;;;;2284615;60;1484;-86